x

South Hatteras - 225 South Of Cape Hatteras (41002) Wave Buoy

6:50 - Sun 21st Sep 2014 All times are EDT. -4 hours from GMT.

  • Sig Wave height 8.5ft
  • Swell Direction
  • Peak Period 8s
  • Average Period 6s
  • Wind
    16mph, 18mph gusts
  • Sea Temp 81°f
  • Aire Temp 80°f
  • Sea Pressure 1013.4mb
  • South Hatteras - 225 South Of Cape Hatteras
  • South Hatteras - 225 South Of Cape Hatteras

More Historic Weather Station data

Upgrade to MSW Pro to gain access to the past 30 days of data for over 8000 Wavebouys and Weather Stations around the globe.

Join Pro

Comparision Forecast

View Surf forecast
   
dom 09/21 6:50 8.5ft 8s 6s 16 18 mph 1013.4mb 81f 80f
5:50 10ft 8s 7s 16 20 mph 1012.7mb 81f 80f
4:50 11ft 8s 7s 20 22 mph 1012.2mb 81f 80f
3:50 10.5ft 8s 6s 20 27 mph 1012.1mb 81f 80f
2:50 11.5ft 8s 7s 22 27 mph 1011.8mb 81f 80f
1:50 10ft 8s 6s 22 29 mph 1011.8mb 81f 80f
12:50 11ft 8s 7s 25 31 mph 1011.6mb 82f 80f
11:50 11ft 9s 6s 25 29 mph 1011.2mb 82f 80f
10:50 11ft 8s 7s 27 34 mph 1010.2mb 82f 81f
9:50 11.5ft 8s 7s 25 29 mph 1009.5mb 82f 79f
8:50 10ft 8s 6s 25 29 mph 1008.7mb 82f 80f
7:50 11.5ft 8s 7s 27 34 mph 1008.7mb 82f 78f
6:50 11ft 7s 6s 27 31 mph 1008.4mb 82f 79f
5:50 10ft 7s 6s 34 43 mph 1007.6mb 82f 78f
4:50 9ft 7s 6s 25 34 mph 1007.5mb 82f 81f
3:50 9ft 7s 6s 27 34 mph 1008.1mb 82f 81f
2:50 8.5ft 7s 6s 25 31 mph 1009mb 82f 78f
1:50 8.5ft 7s 6s 27 34 mph 1010mb 82f 81f
12:50 8ft 7s 6s 22 34 mph 1010.9mb 82f 79f
sáb 09/20 11:50 8ft 7s 6s 20 25 mph 1011.8mb 82f 78f
10:50 8ft 10s 6s 22 27 mph 1011.1mb 82f 80f
9:50 8ft 10s 6s 20 25 mph 1011.7mb 82f 78f
8:50 9.5ft 9s 6s 20 25 mph 1012.1mb 82f 76f
7:50 9ft 7s 6s 25 29 mph 1011mb 82f 79f
6:50 9ft 8s 6s 25 29 mph 1010.7mb 82f 78f
5:50 9ft 7s 6s 25 29 mph 1010.7mb 82f 80f
4:50 9.5ft 9s 6s 18 25 mph 1011.1mb 82f 77f
3:50 9ft 8s 6s 22 29 mph 1012mb 82f 76f
2:50 8.5ft 7s 6s 31 38 mph 1011.3mb 82f 77f
1:50 8ft 7s 6s 27 34 mph 1012.8mb 82f 78f
12:50 7.5ft 7s 6s 25 31 mph 1014.1mb 82f 77f
11:50 8.5ft 6s 6s 25 29 mph 1015.3mb 82f 76f
10:50 7ft 6s 5s 25 29 mph 1015.9mb 82f 76f
9:50 7ft 7s 6s 20 31 mph 1016.4mb 82f 74f
8:50 7ft 7s 5s 13 18 mph 1016.7mb 82f 74f
7:50 6.5ft 8s 5s 18 22 mph 1017mb 82f 76f
6:50 7ft 8s 6s 27 31 mph 1015.7mb 82f 76f
5:50 7ft 8s 5s 22 27 mph 1015.8mb 82f 76f
4:50 7ft 8s 6s 34 40 mph 1015.5mb 82f 75f
3:50 7ft 8s 6s 22 27 mph 1016mb 82f 76f
2:50 7.5ft 8s 6s 18 22 mph 1017.1mb 82f 74f
1:50 7ft 7s 6s 22 27 mph 1017.2mb 82f 78f
12:50 7.5ft 8s 6s 25 31 mph 1017.7mb 82f 79f
vie 09/19 11:50 8ft 8s 6s 25 27 mph 1018.6mb 82f 79f
10:50 7ft 8s 6s 27 31 mph 1018.1mb 82f 80f
9:50 6.5ft 7s 5s 27 31 mph 1018.2mb 82f 79f
8:50 5ft 5s 5s 22 29 mph 1018.2mb 82f 80f
7:50 4.5ft 9s 5s 22 29 mph 1017.8mb 82f 80f
6:50 4ft 9s 5s 22 27 mph 1017.4mb 82f 79f
4:50 3.5ft 8s 5s 16 22 mph 1017.5mb 82f 79f
3:50 3.5ft 4s 5s 16 18 mph 1017.7mb 82f 79f
2:50 3.5ft 5s 5s 16 20 mph 1017.8mb 82f 79f
1:50 3.5ft 7s 5s 16 20 mph 1018mb 82f 79f
12:50 3.5ft 5s 4s 18 22 mph 1018.4mb 82f 79f
11:50 4ft 10s 4s 18 20 mph 1018.8mb 82f 79f
10:50 3.5ft 4s 5s 18 20 mph 1018.4mb 82f 79f
9:50 3.5ft 6s 5s 18 20 mph 1018.5mb 82f 79f
8:50 3.5ft 5s 5s 18 20 mph 1017.9mb 82f 79f
7:50 4ft 6s 5s 18 20 mph 1017.4mb 82f 79f
6:50 3.5ft 6s 5s 18 20 mph 1016.7mb 82f 79f
5:50 4ft 6s 5s 16 18 mph 1016.4mb 82f 79f
4:50 3.5ft 6s 5s 16 18 mph 1015.7mb 82f 78f
3:50 3.5ft 10s 5s 16 18 mph 1015.3mb 82f 78f
2:50 3.5ft 11s 5s 16 18 mph 1015.4mb 82f 78f
1:50 3.5ft 10s 5s 13 16 mph 1015.7mb 82f 79f
12:50 3.5ft 10s 5s 13 16 mph 1015.9mb 82f 79f
jue 09/18 11:50 3.5ft 10s 5s 13 16 mph 1015.9mb 82f 79f
10:50 3.5ft 9s 5s 11 16 mph 1015.8mb 82f 79f
9:50 3.5ft 11s 6s 11 16 mph 1015.5mb 82f 79f
8:50 3.5ft 9s 6s 13 16 mph 1015.4mb 82f 79f
7:50 3.5ft 6s 6s 9 11 mph 1014.6mb 82f 79f
6:50 3ft 10s 6s 9 11 mph 1014.2mb 83f 79f
5:50 3ft 11s 6s 9 11 mph 1014mb 83f 79f
4:50 3.5ft 10s 6s 9 11 mph 1013.8mb 83f 79f
3:50 3.5ft 12s 6s 7 9 mph 1013.4mb 83f 79f
2:50 3.5ft 10s 6s 7 9 mph 1013.3mb 83f 79f
1:50 3.5ft 12s 6s 9 11 mph 1013.7mb 83f 79f
12:50 3.5ft 11s 6s 7 9 mph 1014mb 83f 79f
11:50 3.5ft 11s 6s 7 9 mph 1014.2mb 82f 79f
10:50 3.5ft 11s 6s 9 11 mph 1014.1mb 82f 78f
9:50 4ft 11s 6s 11 13 mph 1013.7mb 82f 79f
8:50 3.5ft 10s 6s 9 13 mph 1012.9mb 82f 79f
7:50 4ft 10s 6s 11 13 mph 1012.4mb 82f 78f
6:50 4ft 12s 6s 13 16 mph 1012mb 82f 78f
5:50 4.5ft 10s 6s 9 11 mph 1011.4mb 82f 78f
4:50 4.5ft 11s 6s 9 11 mph 1011.2mb 82f 78f
3:50 4.5ft 12s 7s 9 11 mph 1010.8mb 82f 78f
2:50 5ft 13s 7s 9 11 mph 1011.1mb 82f 78f
1:50 5ft 13s 7s 9 11 mph 1011mb 82f 78f
12:50 5ft 11s 7s 7 9 mph 1011.4mb 82f 78f